Aeroporto :
LOGIN :

Iscrizione | Disclaimer

   EN    FR    IT 

 










Sommario :    VFR   VFR Marginale   IFR   IFR Intensivo   IFR Molto Intensivo
Visibilità : 
Base nubi : 
>= 8 km
>= 3000ft
5 / 8 km
1000 / 3000 ft
1500m / 5 km
500 / 1000 ft
800 / 1500m
200 / 500 ft
< 800m
< 200 ft
Simboli :   Temporali  Nebbia  Neve Forte  Precipitazioni Forti  Vento > 20 kt
SIGMETs :   Varie  Temporali  Ghiacco  Turbolenza  Onda orograficha  Ceneri Vulcaniche






- Altitudine del aeroporto : 616 ft
- Codice IATA : PUF


LFBP - Pau

ULTIMO METAR :
  • 200000Z AUTO VRB03KT CAVOK 15/09 Q1010 NOSIG

METARs OBSOLETI :
  • 192330Z AUTO 07004KT 050V110 CAVOK 15/09 Q1010 NOSIG
  • 192300Z AUTO VRB02KT CAVOK 14/10 Q1010 NOSIG
  • 192230Z AUTO VRB03KT CAVOK 15/10 Q1010 NOSIG
  • 192200Z AUTO 12005KT 070V170 CAVOK 15/10 Q1010 NOSIG
  • 192130Z AUTO 12008KT CAVOK 15/10 Q1010 NOSIG
  • 192100Z AUTO 11007KT CAVOK 15/10 Q1011 NOSIG

TAF TAF LFBP
Valido dal 20 a 00 ore il 21 a 00 ore UTC


192300Z 2000/2024 12008KT CAVOK
BECMG 2007/2009 34005KT
BECMG 2016/2018 09010KT
BECMG 2023/2024 19015G25KT



MetMap, La meteo Aeronautica in un colpo d'occhio ! - Copyright ORBIFLY Dicembre 2007 - Disclaimer

ORBIFLY MET'MAP TEAM :

Programmazione e sviluppo : Alexandra Zaïnal
Concezione : Baudouin d'Aumeries
Aiuto per la programmazione : Marc-Olivier Méhu
Supporto tecnico e logistico : Manuel Goepfert
Aiuto per la traduzione : Arnaldo La Scala

Contatto : metmap@orbifly.com




FONTI E CREDITI :

   NOAA